createdAt,value
2022-09-24T00:02:00.947Z,101170.89
2022-09-24T00:04:33.192Z,101168.41
2022-09-24T00:07:05.661Z,101164.42
2022-09-24T00:09:37.540Z,101164.14
2022-09-24T00:12:13.109Z,101159.08
2022-09-24T00:14:45.429Z,101156.48
2022-09-24T00:17:17.329Z,101151.40
2022-09-24T00:19:49.514Z,101153.76
2022-09-24T00:22:21.316Z,101149.61
2022-09-24T00:25:10.747Z,101148.78
2022-09-24T00:27:42.943Z,101145.85
2022-09-24T00:30:15.718Z,101143.59
2022-09-24T00:32:47.563Z,101139.24
2022-09-24T00:35:19.480Z,101135.61
2022-09-24T00:37:51.516Z,101132.49
2022-09-24T00:40:28.019Z,101132.40
2022-09-24T00:43:00.256Z,101125.98
2022-09-24T00:45:32.904Z,101125.87
2022-09-24T00:48:04.838Z,101122.94
2022-09-24T00:50:37.889Z,101120.16
2022-09-24T00:53:13.339Z,101116.74
2022-09-24T00:55:49.423Z,101115.70
2022-09-24T00:58:23.205Z,101111.05
2022-09-24T01:01:00.590Z,101109.83
2022-09-24T01:03:41.040Z,101109.91
2022-09-24T01:06:14.633Z,101109.96
2022-09-24T01:08:47.493Z,101109.87
2022-09-24T01:11:37.279Z,101107.66
2022-09-24T01:14:45.176Z,101107.34
2022-09-24T01:17:28.858Z,101103.89
2022-09-24T01:20:29.957Z,101102.71
2022-09-24T01:23:29.770Z,101102.71
2022-09-24T01:26:20.179Z,101093.25
2022-09-24T01:29:06.475Z,101091.05
2022-09-24T01:31:46.941Z,101084.79
2022-09-24T01:34:29.577Z,101082.05
2022-09-24T01:37:03.722Z,101078.05
2022-09-24T01:39:38.015Z,101076.86
2022-09-24T01:42:12.210Z,101074.56
2022-09-24T01:44:45.369Z,101072.85
2022-09-24T01:47:23.556Z,101072.70
2022-09-24T01:49:55.542Z,101075.20
2022-09-24T01:52:32.921Z,101075.06
2022-09-24T01:55:07.703Z,101074.45
2022-09-24T01:57:44.947Z,101076.59
2022-09-24T02:00:18.994Z,101074.81
2022-09-24T02:02:55.838Z,101077.04
2022-09-24T02:05:33.354Z,101073.69
2022-09-24T02:08:10.658Z,101080.02
2022-09-24T02:10:47.651Z,101077.38
2022-09-24T02:13:24.825Z,101078.55
2022-09-24T02:16:00.807Z,101081.00
2022-09-24T02:18:37.974Z,101082.20
2022-09-24T02:21:14.131Z,101078.85
2022-09-24T02:23:49.063Z,101078.16
2022-09-24T02:26:21.131Z,101074.67
2022-09-24T02:28:53.563Z,101069.29
2022-09-24T02:31:30.318Z,101068.09
2022-09-24T02:34:23.729Z,101070.77
2022-09-24T02:37:00.285Z,101066.21
2022-09-24T02:39:32.782Z,101066.21
2022-09-24T02:42:06.545Z,101063.76
2022-09-24T02:44:38.676Z,101063.27
2022-09-24T02:47:10.718Z,101060.28
2022-09-24T02:49:42.674Z,101056.80
2022-09-24T02:52:14.623Z,101056.61
2022-09-24T02:54:46.395Z,101058.02
2022-09-24T02:57:18.647Z,101055.42
2022-09-24T02:59:50.486Z,101057.38
2022-09-24T03:02:22.472Z,101051.95
2022-09-24T03:04:55.834Z,101048.48
2022-09-24T03:07:27.783Z,101052.41
2022-09-24T03:09:59.646Z,101048.55
2022-09-24T03:12:31.474Z,101051.02
2022-09-24T03:15:03.329Z,101051.34
2022-09-24T03:17:35.216Z,101049.64
2022-09-24T03:20:08.497Z,101048.27
2022-09-24T03:22:40.580Z,101047.12
2022-09-24T03:25:13.191Z,101041.81
2022-09-24T03:27:45.223Z,101045.52
2022-09-24T03:30:35.041Z,101042.41
2022-09-24T03:33:07.099Z,101043.48
2022-09-24T03:35:39.064Z,101044.95
2022-09-24T03:38:10.994Z,101046.41
2022-09-24T03:40:42.897Z,101050.64
2022-09-24T03:43:15.017Z,101047.84
2022-09-24T03:45:46.979Z,101047.58
2022-09-24T03:48:19.816Z,101045.29
2022-09-24T03:50:52.030Z,101043.33
2022-09-24T03:53:24.504Z,101046.44
2022-09-24T03:55:59.848Z,101047.31
2022-09-24T03:58:34.684Z,101048.77
2022-09-24T04:01:07.413Z,101046.91
2022-09-24T04:03:40.673Z,101047.30
2022-09-24T04:06:12.671Z,101049.63
2022-09-24T04:08:44.567Z,101048.42
2022-09-24T04:11:16.715Z,101044.88
2022-09-24T04:13:48.939Z,101047.59
2022-09-24T04:16:23.823Z,101046.75
2022-09-24T04:18:56.362Z,101046.02
2022-09-24T04:21:28.315Z,101044.09
2022-09-24T04:24:00.393Z,101042.85
2022-09-24T04:26:33.383Z,101043.36
2022-09-24T04:29:06.860Z,101043.68
2022-09-24T04:31:39.875Z,101043.52
2022-09-24T04:34:12.648Z,101041.23
2022-09-24T04:36:44.484Z,101042.27
2022-09-24T04:39:16.946Z,101039.09
2022-09-24T04:41:48.854Z,101039.88
2022-09-24T04:44:21.026Z,101042.54
2022-09-24T04:46:53.157Z,101044.86
2022-09-24T04:49:25.215Z,101044.02
2022-09-24T04:51:58.312Z,101045.80
2022-09-24T04:54:30.542Z,101043.73
2022-09-24T04:57:05.629Z,101041.80
2022-09-24T04:59:39.995Z,101044.81
2022-09-24T05:02:12.122Z,101042.93
2022-09-24T05:04:44.772Z,101041.56
2022-09-24T05:07:17.141Z,101038.20
2022-09-24T05:09:49.478Z,101038.74
2022-09-24T05:12:21.985Z,101039.60
2022-09-24T05:14:54.027Z,101037.79
2022-09-24T05:17:26.171Z,101037.27
2022-09-24T05:19:59.713Z,101037.45
2022-09-24T05:22:31.947Z,101039.30
2022-09-24T05:25:04.107Z,101040.38
2022-09-24T05:27:36.500Z,101035.98
2022-09-24T05:30:10.701Z,101036.83
2022-09-24T05:32:43.364Z,101036.80
2022-09-24T05:35:15.575Z,101038.39
2022-09-24T05:37:49.818Z,101035.49
2022-09-24T05:40:40.055Z,101034.21
2022-09-24T05:43:12.041Z,101030.23
2022-09-24T05:45:45.541Z,101028.92
2022-09-24T05:48:17.630Z,101029.73
2022-09-24T05:50:49.496Z,101031.79
2022-09-24T05:53:21.560Z,101028.79
2022-09-24T05:55:53.616Z,101032.80
2022-09-24T05:58:26.421Z,101032.89
2022-09-24T06:00:59.682Z,101031.79
2022-09-24T06:03:31.973Z,101030.65
2022-09-24T06:06:04.388Z,101031.65
2022-09-24T06:08:36.553Z,101031.39
2022-09-24T06:11:09.642Z,101027.65
2022-09-24T06:13:41.467Z,101031.67
2022-09-24T06:16:14.210Z,101030.44
2022-09-24T06:18:46.495Z,101029.98
2022-09-24T06:21:19.126Z,101026.71
2022-09-24T06:23:51.398Z,101030.14
2022-09-24T06:26:26.387Z,101028.19
2022-09-24T06:29:03.716Z,101026.29
2022-09-24T06:31:37.025Z,101027.73
2022-09-24T06:34:09.376Z,101029.05
2022-09-24T06:36:41.340Z,101026.82
2022-09-24T06:39:13.263Z,101029.98
2022-09-24T06:41:45.098Z,101028.48
2022-09-24T06:44:21.225Z,101028.17
2022-09-24T06:46:53.763Z,101031.20
2022-09-24T06:49:27.994Z,101029.93
2022-09-24T06:52:04.621Z,101031.08
2022-09-24T06:54:36.889Z,101029.55
2022-09-24T06:57:09.969Z,101032.09
2022-09-24T06:59:41.848Z,101031.22
2022-09-24T07:02:13.820Z,101028.82
2022-09-24T07:04:45.764Z,101028.23
2022-09-24T07:07:34.369Z,101031.02
2022-09-24T07:10:08.759Z,101029.10
2022-09-24T07:12:42.630Z,101029.77
2022-09-24T07:15:14.808Z,101031.20
2022-09-24T07:17:46.774Z,101034.77
2022-09-24T07:20:19.284Z,101037.29
2022-09-24T07:22:51.247Z,101040.15
2022-09-24T07:25:23.551Z,101041.25
2022-09-24T07:27:55.437Z,101041.66
2022-09-24T07:30:27.399Z,101041.56
2022-09-24T07:33:00.129Z,101041.05
2022-09-24T07:35:32.731Z,101043.62
2022-09-24T07:38:06.394Z,101042.11
2022-09-24T07:40:38.434Z,101037.63
2022-09-24T07:43:14.111Z,101044.24
2022-09-24T07:45:46.646Z,101041.84
2022-09-24T07:48:19.319Z,101044.44
2022-09-24T07:50:51.485Z,101045.27
2022-09-24T07:53:23.852Z,101049.77
2022-09-24T07:55:59.540Z,101047.87
2022-09-24T07:58:32.079Z,101045.89
2022-09-24T08:01:04.036Z,101051.75
2022-09-24T08:03:36.827Z,101049.22
2022-09-24T08:06:10.716Z,101052.16
2022-09-24T08:08:43.695Z,101049.86
2022-09-24T08:11:17.261Z,101047.64
2022-09-24T08:13:49.265Z,101048.77
2022-09-24T08:16:22.443Z,101051.02
2022-09-24T08:18:54.899Z,101053.05
2022-09-24T08:21:28.727Z,101051.73
2022-09-24T08:24:01.061Z,101051.66
2022-09-24T08:26:32.994Z,101052.96
2022-09-24T08:29:05.790Z,101054.48
2022-09-24T08:31:38.525Z,101057.66
2022-09-24T08:34:10.845Z,101056.40
2022-09-24T08:36:43.452Z,101053.91
2022-09-24T08:39:16.034Z,101054.61
2022-09-24T08:42:00.550Z,101054.58
2022-09-24T08:44:55.459Z,101059.00
2022-09-24T08:47:38.694Z,101059.36
2022-09-24T08:50:17.503Z,101062.77
2022-09-24T08:53:02.504Z,101059.39
2022-09-24T08:55:39.385Z,101057.64
2022-09-24T08:58:33.306Z,101056.39
2022-09-24T09:01:16.435Z,101055.91
2022-09-24T09:03:56.295Z,101054.40
2022-09-24T09:06:47.442Z,101055.70
2022-09-24T09:09:21.594Z,101054.73
2022-09-24T09:12:06.927Z,101049.77
2022-09-24T09:14:52.123Z,101045.10
2022-09-24T09:17:33.565Z,101045.86
2022-09-24T09:20:13.106Z,101044.48
2022-09-24T09:22:49.016Z,101039.37
2022-09-24T09:25:24.957Z,101040.08
2022-09-24T09:28:02.335Z,101042.31
2022-09-24T09:30:43.799Z,101040.44
2022-09-24T09:33:29.281Z,101044.50
2022-09-24T09:36:22.592Z,101042.56
2022-09-24T09:39:05.959Z,101044.08
2022-09-24T09:41:42.939Z,101042.67
2022-09-24T09:44:22.325Z,101038.86
2022-09-24T09:47:01.725Z,101042.11
2022-09-24T09:49:38.682Z,101042.42
2022-09-24T09:52:17.352Z,101035.59
2022-09-24T09:54:49.917Z,101038.67
2022-09-24T09:57:24.313Z,101035.75
2022-09-24T09:59:57.157Z,101036.95
2022-09-24T10:02:31.851Z,101034.11
2022-09-24T10:05:06.621Z,101035.31
2022-09-24T10:07:47.685Z,101034.55
2022-09-24T10:10:24.736Z,101031.31
2022-09-24T10:13:08.087Z,101032.13
2022-09-24T10:15:52.225Z,101034.47
2022-09-24T10:18:32.934Z,101033.03
2022-09-24T10:21:12.111Z,101031.70
2022-09-24T10:23:48.855Z,101035.37
2022-09-24T10:26:20.754Z,101035.77
2022-09-24T10:29:11.687Z,101029.30
2022-09-24T10:31:45.873Z,101023.43
2022-09-24T10:34:28.287Z,101025.64
2022-09-24T10:37:13.926Z,101024.07
2022-09-24T10:39:45.966Z,101020.08
2022-09-24T10:42:30.486Z,101017.73
2022-09-24T10:45:04.702Z,101014.50
2022-09-24T10:47:45.756Z,101010.39
2022-09-24T10:50:30.825Z,101014.35
2022-09-24T10:53:09.055Z,101013.30
2022-09-24T10:55:49.783Z,101009.77
2022-09-24T10:58:43.376Z,101007.70
2022-09-24T11:01:20.497Z,101007.03
2022-09-24T11:04:36.390Z,101002.48
2022-09-24T11:07:35.346Z,101003.08
2022-09-24T11:10:22.126Z,100999.52
2022-09-24T11:13:07.465Z,100997.79
2022-09-24T11:15:58.928Z,100995.85
2022-09-24T11:18:39.068Z,100993.32
2022-09-24T11:21:23.396Z,100990.38
2022-09-24T11:24:18.834Z,100987.13
2022-09-24T11:27:01.611Z,100983.52
2022-09-24T11:30:00.383Z,100982.44
2022-09-24T11:32:42.642Z,100979.58
2022-09-24T11:35:36.600Z,100975.00
2022-09-24T11:38:14.888Z,100975.67
2022-09-24T11:41:01.908Z,100974.65
2022-09-24T11:43:54.028Z,100969.48
2022-09-24T11:46:47.447Z,100969.95
2022-09-24T11:49:34.220Z,100963.55
2022-09-24T11:52:11.671Z,100968.13
2022-09-24T11:54:50.492Z,100963.92
2022-09-24T11:57:27.163Z,100963.75
2022-09-24T12:00:07.460Z,100968.14
2022-09-24T12:02:45.717Z,100965.09
2022-09-24T12:05:26.627Z,100964.80
2022-09-24T12:08:04.233Z,100964.39
2022-09-24T12:10:43.422Z,100961.49
2022-09-24T12:13:21.488Z,100960.30
2022-09-24T12:15:57.410Z,100959.23
2022-09-24T12:18:33.633Z,100961.49
2022-09-24T12:21:11.016Z,100958.58
2022-09-24T12:23:46.554Z,100956.24
2022-09-24T12:26:22.224Z,100952.06
2022-09-24T12:29:17.413Z,100950.05
2022-09-24T12:32:16.106Z,100949.95
2022-09-24T12:34:55.745Z,100942.08
2022-09-24T12:37:33.242Z,100942.98
2022-09-24T12:40:19.353Z,100943.66
2022-09-24T12:42:56.104Z,100942.60
2022-09-24T12:45:28.785Z,100943.56
2022-09-24T12:48:02.943Z,100942.55
2022-09-24T12:50:40.452Z,100936.39
2022-09-24T12:53:25.534Z,100938.10
2022-09-24T12:56:04.373Z,100935.52
2022-09-24T12:58:42.487Z,100931.98
2022-09-24T13:01:30.566Z,100929.16
2022-09-24T13:04:26.073Z,100929.08
2022-09-24T13:06:58.444Z,100928.89
2022-09-24T13:09:37.267Z,100926.95
2022-09-24T13:12:23.319Z,100924.81
2022-09-24T13:15:01.528Z,100927.52
2022-09-24T13:17:36.009Z,100921.13
2022-09-24T13:20:19.028Z,100919.87
2022-09-24T13:22:59.752Z,100913.89
2022-09-24T13:25:31.779Z,100915.58
2022-09-24T13:28:19.914Z,100921.42
2022-09-24T13:30:59.473Z,100918.95
2022-09-24T13:33:38.036Z,100914.41
2022-09-24T13:36:18.170Z,100917.73
2022-09-24T13:38:57.609Z,100915.51
2022-09-24T13:41:37.030Z,100918.06
2022-09-24T13:44:17.197Z,100918.98
2022-09-24T13:46:53.313Z,100916.52
2022-09-24T13:49:27.906Z,100914.81
2022-09-24T13:52:13.155Z,100911.70
2022-09-24T13:54:53.486Z,100911.60
2022-09-24T13:57:27.532Z,100904.98
2022-09-24T14:00:20.046Z,100902.95
2022-09-24T14:03:03.002Z,100901.47
2022-09-24T14:05:38.530Z,100899.26
2022-09-24T14:08:14.213Z,100900.73
2022-09-24T14:10:48.632Z,100898.17
2022-09-24T14:13:23.213Z,100895.84
2022-09-24T14:15:59.137Z,100895.08
2022-09-24T14:18:31.745Z,100892.92
2022-09-24T14:21:10.475Z,100893.81
2022-09-24T14:23:48.538Z,100891.29
2022-09-24T14:26:28.769Z,100886.21
2022-09-24T14:29:07.079Z,100890.45
2022-09-24T14:31:48.222Z,100890.44
2022-09-24T14:34:34.255Z,100888.98
2022-09-24T14:37:13.344Z,100889.48
2022-09-24T14:39:47.658Z,100885.30
2022-09-24T14:42:27.604Z,100883.80
2022-09-24T14:45:00.709Z,100886.81
2022-09-24T15:12:30.817Z,100889.56
2022-09-24T15:15:02.187Z,100894.95
2022-09-24T15:17:32.920Z,100893.66
2022-09-24T15:20:04.300Z,100894.73
2022-09-24T15:22:32.938Z,100893.16
2022-09-24T15:25:02.546Z,100891.05
2022-09-24T15:27:33.855Z,100892.14
2022-09-24T15:30:04.635Z,100897.43
2022-09-24T15:32:36.102Z,100890.58
2022-09-24T15:35:08.923Z,100889.13
2022-09-24T15:37:40.358Z,100887.26
2022-09-24T15:40:19.925Z,100889.57
2022-09-24T15:42:49.021Z,100892.90
2022-09-24T15:45:20.988Z,100891.14
2022-09-24T15:47:50.279Z,100891.00
2022-09-24T15:50:20.556Z,100890.00
2022-09-24T15:52:53.360Z,100888.05
2022-09-24T15:55:23.626Z,100889.33
2022-09-24T15:57:52.722Z,100889.88
2022-09-24T16:00:23.334Z,100889.95
2022-09-24T16:02:54.724Z,100891.41
2022-09-24T16:05:24.157Z,100895.34
2022-09-24T16:07:52.780Z,100896.94
2022-09-24T16:10:21.525Z,100899.62
2022-09-24T16:12:50.182Z,100898.23
2022-09-24T16:15:19.070Z,100896.88
2022-09-24T16:17:49.566Z,100899.11
2022-09-24T16:20:18.763Z,100896.61
2022-09-24T16:22:47.457Z,100898.07
2022-09-24T16:25:19.357Z,100899.31
2022-09-24T16:27:47.989Z,100900.13
2022-09-24T16:30:17.194Z,100902.48
2022-09-24T16:32:46.586Z,100902.50
2022-09-24T16:35:18.429Z,100903.73
2022-09-24T16:38:19.005Z,100902.25
2022-09-24T16:41:00.273Z,100904.53
2022-09-24T16:43:29.100Z,100903.79
2022-09-24T16:46:02.904Z,100901.45
2022-09-24T16:48:32.127Z,100907.31
2022-09-24T16:51:05.037Z,100908.54
2022-09-24T16:53:34.349Z,100907.10
2022-09-24T16:56:04.817Z,100905.30
2022-09-24T16:58:34.341Z,100899.85
2022-09-24T17:01:06.149Z,100901.05
2022-09-24T17:03:37.099Z,100905.79
2022-09-24T17:06:07.190Z,100905.38
2022-09-24T17:09:14.484Z,100909.49
2022-09-24T17:11:46.102Z,100911.95
2022-09-24T17:14:17.978Z,100908.73
2022-09-24T17:16:49.082Z,100910.30
2022-09-24T17:19:17.739Z,100905.84
2022-09-24T17:21:49.737Z,100908.81
2022-09-24T17:24:22.004Z,100904.36
2022-09-24T17:26:51.527Z,100906.92
2022-09-24T17:29:28.866Z,100910.10
2022-09-24T17:32:00.725Z,100910.33
2022-09-24T17:34:29.460Z,100908.95
2022-09-24T17:36:59.222Z,100906.71
2022-09-24T17:39:30.106Z,100905.48
2022-09-24T17:41:58.636Z,100906.36
2022-09-24T17:44:27.250Z,100905.33
2022-09-24T17:46:56.594Z,100904.59
2022-09-24T17:49:25.560Z,100904.53
2022-09-24T17:51:54.074Z,100907.79
2022-09-24T17:54:23.728Z,100903.02
2022-09-24T17:56:52.527Z,100904.45
2022-09-24T17:59:25.729Z,100906.60
2022-09-24T18:01:55.431Z,100903.54
2022-09-24T18:04:27.648Z,100906.00
2022-09-24T18:06:56.346Z,100908.56
2022-09-24T18:09:25.307Z,100913.02
2022-09-24T18:11:53.879Z,100916.74
2022-09-24T18:14:28.538Z,100916.83
2022-09-24T18:16:59.500Z,100919.52
2022-09-24T18:19:28.762Z,100920.05
2022-09-24T18:21:59.408Z,100924.88
2022-09-24T18:24:28.424Z,100927.30
2022-09-24T18:26:56.874Z,100923.34
2022-09-24T18:29:25.608Z,100925.74
2022-09-24T18:33:18.213Z,100923.58
2022-09-24T18:35:25.113Z,100928.30
2022-09-24T18:50:31.303Z,100928.44
2022-09-24T18:53:00.019Z,100928.08
2022-09-24T18:55:29.868Z,100932.11
2022-09-24T18:57:59.586Z,100932.44
2022-09-24T19:00:49.020Z,100926.80
2022-09-24T19:03:18.527Z,100925.16
2022-09-24T19:05:51.254Z,100931.67
2022-09-24T19:08:20.724Z,100929.71
2022-09-24T19:10:52.751Z,100931.73
2022-09-24T19:13:26.140Z,100933.52
2022-09-24T19:15:55.216Z,100931.80
2022-09-24T19:18:23.909Z,100925.66
2022-09-24T19:20:52.815Z,100927.34
2022-09-24T19:23:22.648Z,100931.10
2022-09-24T19:25:51.455Z,100932.08
2022-09-24T19:28:20.197Z,100934.58
2022-09-24T19:30:51.225Z,100934.98
2022-09-24T19:33:20.027Z,100937.58
2022-09-24T19:35:55.253Z,100937.68
2022-09-24T19:38:25.206Z,100938.26
2022-09-24T19:40:58.670Z,100937.50
2022-09-24T19:43:28.254Z,100936.72
2022-09-24T19:45:58.989Z,100937.14
2022-09-24T19:48:29.460Z,100929.45
2022-09-24T19:51:08.089Z,100930.27
2022-09-24T19:53:37.017Z,100926.64
2022-09-24T19:56:10.548Z,100926.21
2022-09-24T19:58:39.229Z,100921.66
2022-09-24T20:01:16.176Z,100921.60
2022-09-24T20:03:46.638Z,100919.04
2022-09-24T20:06:17.660Z,100923.85
2022-09-24T20:08:46.718Z,100923.13
2022-09-24T20:11:19.771Z,100924.92
2022-09-24T20:13:50.154Z,100925.91
2022-09-24T20:16:20.331Z,100926.53
2022-09-24T20:18:50.374Z,100927.19
2022-09-24T20:21:19.439Z,100926.54
2022-09-24T20:23:48.839Z,100932.79
2022-09-24T20:26:36.010Z,100930.10
2022-09-24T20:29:06.749Z,100928.10
2022-09-24T20:31:35.445Z,100930.18
2022-09-24T20:34:04.119Z,100920.58
2022-09-24T20:36:32.827Z,100924.23
2022-09-24T20:39:03.087Z,100926.94
2022-09-24T20:41:31.676Z,100928.48
2022-09-24T20:44:00.255Z,100928.36
2022-09-24T20:46:29.312Z,100928.13
2022-09-24T20:48:59.893Z,100928.63
2022-09-24T20:51:30.626Z,100925.73
2022-09-24T20:54:00.128Z,100926.18
2022-09-24T20:56:30.252Z,100926.60
2022-09-24T20:59:00.354Z,100925.44
2022-09-24T21:01:29.043Z,100925.08
2022-09-24T21:03:57.801Z,100925.88
2022-09-24T21:06:26.452Z,100925.98
2022-09-24T21:08:57.753Z,100926.48
2022-09-24T21:11:28.047Z,100927.70
2022-09-24T21:13:59.981Z,100930.98
2022-09-24T21:16:30.747Z,100927.61
2022-09-24T21:19:00.637Z,100925.82
2022-09-24T21:21:31.226Z,100926.29
2022-09-24T21:24:01.300Z,100927.48
2022-09-24T21:26:31.170Z,100927.87
2022-09-24T21:29:02.591Z,100928.23
2022-09-24T21:31:33.638Z,100929.08
2022-09-24T21:34:04.943Z,100929.80
2022-09-24T21:36:42.874Z,100927.88
2022-09-24T21:39:16.452Z,100926.67
2022-09-24T21:41:49.226Z,100927.39
2022-09-24T21:44:18.769Z,100922.24
2022-09-24T21:46:51.682Z,100920.34
2022-09-24T21:49:20.685Z,100916.31
2022-09-24T21:51:50.102Z,100919.16
2022-09-24T21:54:19.189Z,100921.11
2022-09-24T21:56:48.176Z,100916.33
2022-09-24T21:59:35.211Z,100913.65
2022-09-24T22:02:04.742Z,100916.35
2022-09-24T22:04:36.886Z,100919.86
2022-09-24T22:07:05.700Z,100918.91
2022-09-24T22:09:34.576Z,100920.30
2022-09-24T22:12:04.381Z,100918.00
2022-09-24T22:14:34.128Z,100914.31
2022-09-24T22:17:03.371Z,100917.20
2022-09-24T22:19:32.028Z,100910.71
2022-09-24T22:22:00.455Z,100912.81
2022-09-24T22:24:29.365Z,100906.58
2022-09-24T22:26:58.471Z,100906.97
2022-09-24T22:29:27.118Z,100907.30
2022-09-24T22:31:55.598Z,100908.02
2022-09-24T22:34:42.730Z,100908.20
2022-09-24T22:37:11.414Z,100901.44
2022-09-24T22:39:39.885Z,100898.25
2022-09-24T22:42:08.558Z,100893.11
2022-09-24T22:44:36.997Z,100893.97
2022-09-24T22:47:05.688Z,100890.61
2022-09-24T22:49:36.553Z,100886.91
2022-09-24T22:52:05.098Z,100884.08
2022-09-24T22:54:33.748Z,100885.25
2022-09-24T22:57:02.206Z,100880.67
2022-09-24T22:59:31.032Z,100877.33
2022-09-24T23:01:59.427Z,100876.75
2022-09-24T23:04:27.944Z,100878.90
2022-09-24T23:06:56.431Z,100879.08
2022-09-24T23:09:25.790Z,100873.77
2022-09-24T23:11:56.012Z,100877.10
2022-09-24T23:14:24.560Z,100874.77
2022-09-24T23:16:53.020Z,100874.25
2022-09-24T23:19:21.499Z,100873.84
2022-09-24T23:21:51.230Z,100873.97
2022-09-24T23:24:21.308Z,100878.02
2022-09-24T23:26:50.520Z,100881.17
2022-09-24T23:29:18.973Z,100882.73
2022-09-24T23:31:47.586Z,100883.55
2022-09-24T23:34:16.080Z,100883.52
2022-09-24T23:36:45.605Z,100883.81
2022-09-24T23:39:14.383Z,100882.91
2022-09-24T23:41:44.000Z,100883.75
2022-09-24T23:44:12.986Z,100884.77
2022-09-24T23:46:41.496Z,100884.77
2022-09-24T23:49:10.203Z,100882.08
2022-09-24T23:51:38.628Z,100883.14
2022-09-24T23:54:07.393Z,100884.52
2022-09-24T23:56:35.881Z,100884.02
2022-09-24T23:59:04.783Z,100882.44
